Time;durP1;ratioP1;P1;durP2;ratioP2;P2;SDS_P1;SDS_P2;PMS_P1;PMS_P2;Temp;Humidity;BMP_temperature;BMP_pressure;BME280_temperature;BME280_humidity;BME280_pressure;Samples;Min_cycle;Max_cycle;Signal;HPM_P1;HPM_P2
2023/05/25 00:00:39;;;;;;;11.77;4.32;;;10.40;89.40;;;;;;4957104;28;88234;-77
2023/05/25 00:03:07;;;;;;;17.38;5.07;;;10.30;90.40;;;;;;4957981;28;87976;-77
2023/05/25 00:05:32;;;;;;;16.25;4.20;;;10.30;90.20;;;;;;4955726;28;93424;-77
2023/05/25 00:07:58;;;;;;;12.00;5.10;;;10.30;90.20;;;;;;4957235;28;88561;-77
2023/05/25 00:10:24;;;;;;;9.32;4.13;;;10.30;90.70;;;;;;4957063;28;88507;-77
2023/05/25 00:12:49;;;;;;;10.82;4.60;;;10.20;90.30;;;;;;4957398;28;87496;-77
2023/05/25 00:15:15;;;;;;;13.52;4.50;;;10.20;90.40;;;;;;4957225;28;86993;-77
2023/05/25 00:17:41;;;;;;;15.25;5.13;;;10.20;90.20;;;;;;4957706;28;89042;-77
2023/05/25 00:20:07;;;;;;;11.15;4.10;;;10.10;90.30;;;;;;4955777;28;88069;-77
2023/05/25 00:22:37;;;;;;;17.63;5.20;;;10.10;90.30;;;;;;4956365;28;88841;-77
2023/05/25 00:25:04;;;;;;;14.50;4.82;;;10.10;90.60;;;;;;4955365;28;90580;-77
2023/05/25 00:27:30;;;;;;;12.60;4.50;;;10.10;90.80;;;;;;4956199;28;88551;-77
2023/05/25 00:29:56;;;;;;;9.75;4.53;;;10.00;91.00;;;;;;4956638;28;87834;-77
2023/05/25 00:32:21;;;;;;;12.75;4.82;;;10.00;91.00;;;;;;4956005;28;87589;-77
2023/05/25 00:34:47;;;;;;;10.93;5.03;;;10.00;91.00;;;;;;4955240;28;88970;-77
2023/05/25 00:37:13;;;;;;;17.90;4.82;;;10.00;91.10;;;;;;4956951;28;88701;-77
2023/05/25 00:39:38;;;;;;;9.15;4.60;;;9.90;91.10;;;;;;4957017;28;88337;-77
2023/05/25 00:42:06;;;;;;;16.02;5.82;;;9.90;91.10;;;;;;4957451;28;87847;-77
2023/05/25 00:44:32;;;;;;;15.98;5.20;;;9.90;91.40;;;;;;4956609;28;87810;-77
2023/05/25 00:46:58;;;;;;;13.57;5.38;;;9.80;91.20;;;;;;4955340;28;89745;-77
2023/05/25 00:49:24;;;;;;;14.38;5.43;;;9.80;91.40;;;;;;4955924;28;88611;-77
2023/05/25 00:51:51;;;;;;;15.40;5.18;;;9.80;91.60;;;;;;4956283;28;87596;-77
2023/05/25 00:54:18;;;;;;;14.73;5.40;;;9.70;91.50;;;;;;4954335;28;88201;-77
2023/05/25 00:56:51;;;;;;;10.13;5.15;;;9.70;91.60;;;;;;4955943;28;88620;-77
2023/05/25 00:59:23;;;;;;;;;;;9.70;91.70;;;;;;4956339;28;88298;-77
2023/05/25 01:01:52;;;;;;;17.55;5.35;;;9.70;91.70;;;;;;4957605;28;87505;-77
2023/05/25 01:04:21;;;;;;;11.80;4.82;;;9.70;91.70;;;;;;4956628;28;87690;-77
2023/05/25 01:06:48;;;;;;;13.20;5.28;;;9.60;91.50;;;;;;4956143;28;87592;-77
2023/05/25 01:09:18;;;;;;;17.10;6.22;;;9.60;91.50;;;;;;4955855;28;87514;-77
2023/05/25 01:11:48;;;;;;;15.57;5.55;;;9.60;91.90;;;;;;4956545;28;88921;-77
2023/05/25 01:14:18;;;;;;;17.35;5.78;;;9.50;91.80;;;;;;4955583;28;87873;-77
2023/05/25 01:16:44;;;;;;;14.55;5.50;;;9.50;92.00;;;;;;4955686;28;89064;-77
2023/05/25 01:19:09;;;;;;;16.95;5.22;;;9.40;91.90;;;;;;4956073;28;88147;-77
2023/05/25 01:21:53;;;;;;;16.45;4.95;;;9.40;91.50;;;;;;4956202;28;87575;-77
2023/05/25 01:24:44;;;;;;;10.27;4.78;;;9.40;91.60;;;;;;4956032;28;87531;-77
2023/05/25 01:27:38;;;;;;;14.15;5.85;;;9.40;91.80;;;;;;4956168;28;88788;-76
2023/05/25 01:30:09;;;;;;;16.23;6.13;;;9.40;92.00;;;;;;4956700;28;87891;-77
2023/05/25 01:32:36;;;;;;;14.85;5.82;;;9.30;92.20;;;;;;4956380;28;87552;-77
2023/05/25 01:35:03;;;;;;;19.45;6.88;;;9.20;92.20;;;;;;4955479;28;87648;-77
2023/05/25 01:37:30;;;;;;;14.45;6.32;;;9.20;92.20;;;;;;4954581;28;91155;-77
2023/05/25 01:39:56;;;;;;;18.80;6.97;;;9.20;92.50;;;;;;4955496;28;88371;-77
2023/05/25 01:42:22;;;;;;;17.85;6.43;;;9.20;92.50;;;;;;4955802;28;87640;-77
2023/05/25 01:44:48;;;;;;;17.15;6.03;;;9.10;92.70;;;;;;4956330;28;87176;-77
2023/05/25 01:47:25;;;;;;;16.05;5.85;;;9.10;92.80;;;;;;4955325;28;87965;-77
2023/05/25 01:50:22;;;;;;;13.00;6.13;;;9.10;92.90;;;;;;4954936;28;89034;-77
2023/05/25 01:53:01;;;;;;;16.88;6.18;;;9.10;93.00;;;;;;4955232;28;87777;-77
2023/05/25 01:55:31;;;;;;;15.88;6.10;;;9.00;93.00;;;;;;4955743;28;87698;-77
2023/05/25 01:57:58;;;;;;;22.88;8.35;;;9.00;92.70;;;;;;4955643;28;89800;-77
2023/05/25 02:00:26;;;;;;;14.45;5.93;;;9.00;92.80;;;;;;4955237;28;87733;-77
2023/05/25 02:02:53;;;;;;;19.33;6.28;;;9.00;92.90;;;;;;4959654;28;88635;-77
2023/05/25 02:05:20;;;;;;;17.83;6.50;;;8.90;93.00;;;;;;4958224;28;87552;-77
2023/05/25 02:07:46;;;;;;;14.73;6.32;;;8.90;93.20;;;;;;4956953;28;89601;-77
2023/05/25 02:10:11;;;;;;;15.50;6.60;;;8.90;93.00;;;;;;4957909;28;88936;-77
2023/05/25 02:12:37;;;;;;;12.63;6.28;;;8.80;93.00;;;;;;4958607;28;88002;-76
2023/05/25 02:15:03;;;;;;;13.18;6.28;;;8.80;93.20;;;;;;4959552;28;87690;-77
2023/05/25 02:17:29;;;;;;;12.35;5.28;;;8.70;93.10;;;;;;4958690;28;90346;-76
2023/05/25 02:19:55;;;;;;;13.65;5.78;;;8.70;93.10;;;;;;4958524;28;88271;-76
2023/05/25 02:22:21;;;;;;;18.98;6.95;;;8.70;92.80;;;;;;4957871;28;87717;-77
2023/05/25 02:24:47;;;;;;;20.33;6.97;;;8.70;93.20;;;;;;4958579;28;87682;-77
2023/05/25 02:27:13;;;;;;;15.70;7.03;;;8.70;93.00;;;;;;4957876;28;88744;-76
2023/05/25 02:29:39;;;;;;;12.95;5.50;;;8.70;92.90;;;;;;4958814;28;88927;-76
2023/05/25 02:32:05;;;;;;;10.88;5.80;;;8.60;92.90;;;;;;4958273;28;87634;-77
2023/05/25 02:34:31;;;;;;;21.58;7.20;;;8.60;92.80;;;;;;4957925;28;87747;-76
2023/05/25 02:36:56;;;;;;;16.25;5.50;;;8.60;93.10;;;;;;4957865;28;88334;-76
2023/05/25 02:39:23;;;;;;;16.60;6.80;;;8.60;93.00;;;;;;4957905;28;88283;-76
2023/05/25 02:41:48;;;;;;;21.50;7.63;;;8.60;93.20;;;;;;4958117;28;87608;-77
2023/05/25 02:44:14;;;;;;;14.63;6.75;;;8.50;93.20;;;;;;4958555;28;87803;-76
2023/05/25 02:46:39;;;;;;;14.90;6.10;;;8.50;93.40;;;;;;4958024;28;89067;-76
2023/05/25 02:49:05;;;;;;;11.70;6.13;;;8.50;93.40;;;;;;4956541;28;91892;-77
2023/05/25 02:51:31;;;;;;;23.48;7.85;;;8.50;93.70;;;;;;4958114;28;88696;-76
2023/05/25 02:53:56;;;;;;;19.35;7.53;;;8.40;93.90;;;;;;4959008;28;87685;-77
2023/05/25 02:56:22;;;;;;;19.65;7.15;;;8.40;94.20;;;;;;4957929;28;88181;-76
2023/05/25 02:58:48;;;;;;;21.63;7.53;;;8.40;94.40;;;;;;4958431;28;88088;-76
2023/05/25 03:01:17;;;;;;;15.00;6.95;;;8.40;94.80;;;;;;4957446;28;87655;-76
2023/05/25 03:03:46;;;;;;;14.13;7.30;;;8.40;94.80;;;;;;4956648;28;87548;-76
2023/05/25 03:06:13;;;;;;;17.80;7.45;;;8.40;94.80;;;;;;4956424;28;88720;-76
2023/05/25 03:08:39;;;;;;;19.02;8.05;;;8.40;94.80;;;;;;4958498;28;87830;-76
2023/05/25 03:11:05;;;;;;;21.95;8.15;;;8.40;94.90;;;;;;4957715;28;87850;-76
2023/05/25 03:13:31;;;;;;;18.63;8.18;;;8.40;94.90;;;;;;4956349;28;88461;-77
2023/05/25 03:15:56;;;;;;;22.23;8.35;;;8.40;94.80;;;;;;4957410;28;90522;-77
2023/05/25 03:18:22;;;;;;;15.07;7.00;;;8.40;94.90;;;;;;4955791;28;91887;-76
2023/05/25 03:20:47;;;;;;;18.60;7.90;;;8.40;94.70;;;;;;4959056;28;87533;-77
2023/05/25 03:23:13;;;;;;;19.75;7.45;;;8.40;94.80;;;;;;4958185;28;87135;-76
2023/05/25 03:25:39;;;;;;;18.70;8.45;;;8.30;94.60;;;;;;4957435;28;88035;-76
2023/05/25 03:28:04;;;;;;;23.38;8.40;;;8.40;94.50;;;;;;4957613;28;88348;-76
2023/05/25 03:30:30;;;;;;;17.23;7.80;;;8.30;94.70;;;;;;4957376;28;87447;-76
2023/05/25 03:32:56;;;;;;;18.05;7.50;;;8.30;94.90;;;;;;4959037;28;86856;-77
2023/05/25 03:35:21;;;;;;;19.63;7.50;;;8.30;94.80;;;;;;4957233;28;88029;-77
2023/05/25 03:37:47;;;;;;;15.18;7.05;;;8.30;94.90;;;;;;4957525;28;87821;-76
2023/05/25 03:40:13;;;;;;;19.02;7.70;;;8.30;94.50;;;;;;4957551;28;88382;-76
2023/05/25 03:42:38;;;;;;;15.75;7.65;;;8.30;94.50;;;;;;4957389;28;87983;-76
2023/05/25 03:45:05;;;;;;;20.02;8.18;;;8.20;94.50;;;;;;4958264;28;88564;-76
2023/05/25 03:47:31;;;;;;;22.02;7.40;;;8.20;94.80;;;;;;4956676;28;87735;-76
2023/05/25 03:49:56;;;;;;;14.77;7.38;;;8.20;94.80;;;;;;4957237;28;87514;-76
2023/05/25 03:52:22;;;;;;;19.33;8.88;;;8.20;94.40;;;;;;4956839;28;89897;-76
2023/05/25 03:54:48;;;;;;;22.23;8.73;;;8.20;94.60;;;;;;4957396;28;89516;-76
2023/05/25 03:57:14;;;;;;;20.45;8.13;;;8.20;95.00;;;;;;4956779;28;88415;-76
2023/05/25 03:59:39;;;;;;;21.90;8.93;;;8.20;94.90;;;;;;4957855;28;87347;-76
2023/05/25 04:02:05;;;;;;;16.45;8.40;;;8.20;94.80;;;;;;4957045;28;87706;-76
2023/05/25 04:04:31;;;;;;;19.75;7.93;;;8.30;94.80;;;;;;4956410;28;88627;-77
2023/05/25 04:06:56;;;;;;;17.58;8.52;;;8.20;94.90;;;;;;4957085;28;89395;-76
2023/05/25 04:09:22;;;;;;;23.42;9.00;;;8.20;94.80;;;;;;4957593;28;87739;-76
2023/05/25 04:11:48;;;;;;;19.13;8.00;;;8.20;95.00;;;;;;4957065;28;88113;-76
2023/05/25 04:14:13;;;;;;;15.23;8.10;;;8.20;94.80;;;;;;4956941;28;88504;-76
2023/05/25 04:16:40;;;;;;;15.00;7.57;;;8.20;94.70;;;;;;4956843;28;88830;-76
2023/05/25 04:19:06;;;;;;;19.13;8.18;;;8.30;94.70;;;;;;4956856;28;87442;-76
2023/05/25 04:21:31;;;;;;;21.13;7.22;;;8.30;94.70;;;;;;4956694;28;86596;-76
2023/05/25 04:23:57;;;;;;;17.15;7.72;;;8.30;94.50;;;;;;4956209;28;89349;-76
2023/05/25 04:26:25;;;;;;;20.08;8.45;;;8.30;94.60;;;;;;4955971;28;88577;-76
2023/05/25 04:28:53;;;;;;;17.75;7.78;;;8.40;94.80;;;;;;4955887;28;88425;-76
2023/05/25 04:31:19;;;;;;;18.08;7.82;;;8.40;94.90;;;;;;4956318;28;87720;-77
2023/05/25 04:33:45;;;;;;;19.58;9.23;;;8.40;94.70;;;;;;4956597;28;88544;-76
2023/05/25 04:36:12;;;;;;;15.80;9.13;;;8.40;94.70;;;;;;4956562;28;88887;-76
2023/05/25 04:38:38;;;;;;;16.70;7.95;;;8.50;94.80;;;;;;4957451;28;87868;-76
2023/05/25 04:41:05;;;;;;;19.23;10.13;;;8.50;94.80;;;;;;4956498;28;87568;-77
2023/05/25 04:43:31;;;;;;;21.30;9.73;;;8.60;94.90;;;;;;4955679;28;87795;-76
2023/05/25 04:45:58;;;;;;;18.33;9.25;;;8.60;94.90;;;;;;4954853;28;89964;-76
2023/05/25 04:48:24;;;;;;;21.10;9.30;;;8.70;94.90;;;;;;4956630;28;87429;-76
2023/05/25 04:50:51;;;;;;;24.25;9.18;;;8.70;95.00;;;;;;4957268;28;87778;-76
2023/05/25 04:53:17;;;;;;;20.52;9.40;;;8.80;95.10;;;;;;4953070;28;91394;-77
2023/05/25 04:55:43;;;;;;;20.85;8.88;;;8.80;95.00;;;;;;4956021;28;89662;-76
2023/05/25 04:58:08;;;;;;;16.50;9.70;;;8.90;95.10;;;;;;4956745;28;87847;-76
2023/05/25 05:00:35;;;;;;;22.25;9.27;;;9.00;95.10;;;;;;4956185;28;87762;-76
2023/05/25 05:03:01;;;;;;;19.80;9.40;;;9.00;95.00;;;;;;4955346;28;89805;-76
2023/05/25 05:05:27;;;;;;;24.45;9.60;;;9.10;95.10;;;;;;4955125;28;91269;-76
2023/05/25 05:07:53;;;;;;;27.98;10.57;;;9.10;95.10;;;;;;4956913;28;87563;-76
2023/05/25 05:10:18;;;;;;;19.60;9.43;;;9.20;95.10;;;;;;4955949;28;87345;-76
2023/05/25 05:12:44;;;;;;;23.77;9.90;;;9.20;94.90;;;;;;4956311;28;88425;-76
2023/05/25 05:15:10;;;;;;;21.77;9.20;;;9.30;94.80;;;;;;4956688;28;88209;-76
2023/05/25 05:17:36;;;;;;;20.35;8.70;;;9.40;94.80;;;;;;4956317;28;88461;-77
2023/05/25 05:20:03;;;;;;;19.80;8.23;;;9.50;94.50;;;;;;4955399;28;87946;-76
2023/05/25 05:22:29;;;;;;;23.38;8.77;;;9.60;94.40;;;;;;4956338;28;87574;-77
2023/05/25 05:24:55;;;;;;;21.13;9.00;;;9.70;94.20;;;;;;4955929;28;88441;-77
2023/05/25 05:27:21;;;;;;;19.75;8.23;;;9.70;94.20;;;;;;4956141;28;87461;-78
2023/05/25 05:29:47;;;;;;;22.05;9.60;;;9.80;94.20;;;;;;4957030;28;88102;-81
2023/05/25 05:32:12;;;;;;;15.45;8.35;;;9.90;94.10;;;;;;4956404;28;87665;-80
2023/05/25 05:34:38;;;;;;;25.33;10.43;;;10.00;94.20;;;;;;4956250;28;88307;-80
2023/05/25 05:37:04;;;;;;;17.38;8.82;;;10.10;94.20;;;;;;4954372;28;87156;-79
2023/05/25 05:39:30;;;;;;;26.70;8.88;;;10.20;93.90;;;;;;4956099;28;87459;-79
2023/05/25 05:41:56;;;;;;;20.27;8.68;;;10.30;93.80;;;;;;4966299;28;91165;-82
2023/05/25 05:44:21;;;;;;;16.20;9.07;;;10.40;93.60;;;;;;4964883;28;88854;-82
2023/05/25 05:46:47;;;;;;;16.75;8.38;;;10.50;93.70;;;;;;4966003;28;87588;-81
2023/05/25 05:49:13;;;;;;;21.52;9.27;;;10.60;93.40;;;;;;4960722;28;87673;-81
2023/05/25 05:51:39;;;;;;;16.73;8.80;;;10.70;93.30;;;;;;4959275;28;91413;-80
2023/05/25 05:54:40;;;;;;;21.08;9.40;;;10.80;93.20;;;;;;4978250;28;88432;-83
2023/05/25 06:13:42;;;;;;;20.58;9.32;;;11.60;91.90;;;;;;5211080;22;88802;-81
2023/05/25 06:20:08;;;;;;;22.25;9.65;;;11.80;91.40;;;;;;4935080;28;88138;-79
2023/05/25 06:22:34;;;;;;;25.20;9.70;;;11.90;91.60;;;;;;4935089;28;88041;-80
2023/05/25 06:25:00;;;;;;;22.25;9.68;;;12.10;91.10;;;;;;4935438;28;88421;-80
2023/05/25 06:27:25;;;;;;;22.95;10.20;;;12.20;91.30;;;;;;4937104;28;88034;-79
2023/05/25 06:29:51;;;;;;;19.65;10.30;;;12.30;91.10;;;;;;4937068;28;87779;-78
2023/05/25 06:32:17;;;;;;;19.13;9.45;;;12.40;90.70;;;;;;4933190;28;87556;-78
2023/05/25 06:34:42;;;;;;;24.08;10.95;;;12.50;90.60;;;;;;4935137;28;90129;-77
2023/05/25 06:37:08;;;;;;;26.80;10.82;;;12.60;90.20;;;;;;4933912;28;90117;-78
2023/05/25 06:39:34;;;;;;;24.52;9.43;;;12.70;90.10;;;;;;4935261;28;87499;-77
2023/05/25 06:42:00;;;;;;;21.27;9.75;;;12.90;90.20;;;;;;4935768;28;87949;-78
2023/05/25 06:44:26;;;;;;;22.08;10.80;;;13.00;89.40;;;;;;4917593;28;90200;-78
2023/05/25 06:46:51;;;;;;;23.55;10.52;;;13.10;89.30;;;;;;4933228;28;89064;-77
2023/05/25 06:49:17;;;;;;;24.95;11.60;;;13.20;88.20;;;;;;4937527;28;87593;-78
2023/05/25 06:51:42;;;;;;;21.10;9.40;;;13.30;88.70;;;;;;4938386;28;87423;-77
2023/05/25 06:54:08;;;;;;;28.65;11.05;;;13.50;88.20;;;;;;4938036;28;89465;-77
2023/05/25 06:56:34;;;;;;;27.17;10.80;;;13.60;88.10;;;;;;4938247;28;87589;-78
2023/05/25 06:59:05;;;;;;;23.23;10.90;;;13.70;87.60;;;;;;4910513;28;88647;-79
2023/05/25 07:01:30;;;;;;;19.05;9.98;;;13.90;86.90;;;;;;4934683;28;88604;-77
2023/05/25 07:04:02;;;;;;;20.90;9.27;;;14.10;86.90;;;;;;4909992;28;90295;-77
2023/05/25 07:06:33;;;;;;;23.40;10.13;;;14.20;86.10;;;;;;4906585;28;89838;-78
2023/05/25 07:12:20;;;;;;;29.38;11.40;;;14.50;85.30;;;;;;4929502;28;90568;-78
2023/05/25 07:14:47;;;;;;;22.60;10.68;;;14.70;84.70;;;;;;4937360;28;88146;-78
2023/05/25 07:17:13;;;;;;;24.15;10.25;;;14.80;84.90;;;;;;4919989;28;90023;-77
2023/05/25 07:19:41;;;;;;;29.80;12.27;;;15.00;83.10;;;;;;4938196;28;87356;-79
2023/05/25 07:22:06;;;;;;;28.08;11.20;;;15.10;82.00;;;;;;4936864;28;87718;-77
2023/05/25 07:24:32;;;;;;;27.08;11.13;;;15.20;81.00;;;;;;4935263;28;96082;-79
2023/05/25 07:26:57;;;;;;;24.38;10.95;;;15.30;80.80;;;;;;4938442;28;89227;-79
2023/05/25 07:29:23;;;;;;;22.52;9.85;;;15.40;80.80;;;;;;4938698;28;87458;-80
2023/05/25 07:31:49;;;;;;;17.17;8.77;;;15.60;79.00;;;;;;4938074;28;87797;-80
2023/05/25 07:34:14;;;;;;;22.00;9.38;;;15.80;78.10;;;;;;4921139;28;90427;-80
2023/05/25 07:36:40;;;;;;;27.20;9.70;;;16.00;76.80;;;;;;4928020;28;88311;-79
2023/05/25 07:39:05;;;;;;;21.80;10.95;;;16.10;77.40;;;;;;4939586;28;87669;-79
2023/05/25 07:41:32;;;;;;;22.67;8.88;;;16.30;77.20;;;;;;4937757;28;87173;-79
2023/05/25 07:43:58;;;;;;;23.85;9.52;;;16.50;75.90;;;;;;4920272;28;90469;-79
2023/05/25 07:46:24;;;;;;;25.02;9.95;;;16.60;75.90;;;;;;4937657;28;88289;-79
2023/05/25 07:48:50;;;;;;;21.33;10.52;;;16.80;75.60;;;;;;4936477;28;89126;-79
2023/05/25 07:51:16;;;;;;;27.23;10.85;;;16.90;74.40;;;;;;4936560;28;87768;-80
2023/05/25 07:53:42;;;;;;;24.58;11.25;;;17.00;74.40;;;;;;4919703;28;91938;-80
2023/05/25 07:56:07;;;;;;;22.02;11.05;;;17.10;73.20;;;;;;4937514;28;87646;-79
2023/05/25 07:58:33;;;;;;;20.77;10.43;;;17.10;74.00;;;;;;4936242;28;88145;-79
2023/05/25 08:00:59;;;;;;;23.77;10.98;;;17.20;73.90;;;;;;4935402;28;89549;-78
2023/05/25 08:03:24;;;;;;;22.35;10.32;;;17.40;71.00;;;;;;4937189;28;89206;-81
2023/05/25 08:05:50;;;;;;;25.38;11.52;;;17.50;72.60;;;;;;4937997;28;87265;-80
2023/05/25 08:08:16;;;;;;;23.75;11.02;;;17.60;71.50;;;;;;4935731;28;87654;-80
2023/05/25 08:10:43;;;;;;;23.92;10.68;;;17.70;71.70;;;;;;4937082;28;87895;-79
2023/05/25 08:13:08;;;;;;;27.02;10.63;;;17.80;71.90;;;;;;4935451;28;89536;-78
2023/05/25 08:15:34;;;;;;;28.60;10.57;;;18.00;70.50;;;;;;4936322;28;87853;-80
2023/05/25 08:18:00;;;;;;;24.20;9.52;;;18.10;69.40;;;;;;4920740;28;87714;-78
2023/05/25 08:20:25;;;;;;;24.58;10.23;;;18.30;69.50;;;;;;4937378;28;87935;-87
2023/05/25 08:22:53;;;;;;;24.92;9.88;;;18.60;70.00;;;;;;4918623;28;89080;-78
2023/05/25 08:25:19;;;;;;;21.55;9.27;;;18.60;67.80;;;;;;4936543;28;87743;-79
2023/05/25 08:27:45;;;;;;;18.27;9.23;;;18.60;68.20;;;;;;4919677;28;87907;-82
2023/05/25 08:30:11;;;;;;;19.60;8.95;;;18.70;67.20;;;;;;4938733;28;87372;-82
2023/05/25 08:32:37;;;;;;;22.67;9.40;;;18.90;67.60;;;;;;4920899;28;91694;-83
2023/05/25 08:35:03;;;;;;;16.05;7.75;;;18.90;66.80;;;;;;4919423;28;91211;-77
2023/05/25 08:37:30;;;;;;;19.95;8.80;;;19.20;68.10;;;;;;4937085;28;88326;-77
2023/05/25 08:39:56;;;;;;;16.05;7.15;;;19.40;64.90;;;;;;4919684;28;90556;-77
2023/05/25 08:42:22;;;;;;;17.83;7.70;;;19.60;65.30;;;;;;4936407;28;87777;-76
2023/05/25 08:44:48;;;;;;;17.80;7.82;;;19.90;64.20;;;;;;4937888;28;87927;-77
2023/05/25 08:47:16;;;;;;;18.45;7.97;;;20.10;65.10;;;;;;4937397;28;87440;-76
2023/05/25 08:49:43;;;;;;;15.73;6.70;;;20.20;60.40;;;;;;4937191;28;87615;-77
2023/05/25 08:52:12;;;;;;;14.65;5.85;;;20.30;63.30;;;;;;4937130;28;88379;-77
2023/05/25 08:54:41;;;;;;;12.77;6.07;;;20.50;63.40;;;;;;4935416;28;88812;-77
2023/05/25 08:57:14;;;;;;;12.98;6.22;;;20.90;61.90;;;;;;4937022;28;87476;-77
2023/05/25 08:59:52;;;;;;;15.77;5.70;;;21.20;61.30;;;;;;4935040;28;89567;-76
2023/05/25 09:02:36;;;;;;;14.38;5.53;;;21.30;60.50;;;;;;4935959;28;89532;-76
2023/05/25 09:05:02;;;;;;;14.15;5.88;;;21.20;60.80;;;;;;4918844;28;92786;-77
2023/05/25 09:07:30;;;;;;;11.45;5.07;;;21.30;60.40;;;;;;4935919;28;87567;-76
2023/05/25 09:09:57;;;;;;;19.40;6.60;;;21.60;59.30;;;;;;4918720;28;87999;-76
2023/05/25 09:12:23;;;;;;;18.17;6.20;;;21.70;56.50;;;;;;4936046;28;88588;-77
2023/05/25 09:14:49;;;;;;;14.50;6.50;;;21.90;58.00;;;;;;4919393;28;91287;-77
2023/05/25 09:17:17;;;;;;;13.75;5.70;;;22.10;58.60;;;;;;4936385;28;87797;-77
2023/05/25 09:19:44;;;;;;;15.93;6.57;;;21.80;57.80;;;;;;4936200;28;86942;-78
2023/05/25 09:22:10;;;;;;;11.75;5.00;;;21.50;54.60;;;;;;4935331;28;89294;-77
2023/05/25 09:24:36;;;;;;;12.85;5.07;;;21.30;58.20;;;;;;4918314;28;90232;-77
2023/05/25 09:27:05;;;;;;;10.07;5.10;;;21.50;57.90;;;;;;4919352;28;88667;-77
2023/05/25 09:29:31;;;;;;;9.82;4.25;;;21.50;57.70;;;;;;4936558;28;88200;-77
2023/05/25 09:31:57;;;;;;;10.27;4.55;;;21.60;58.00;;;;;;4935860;28;88574;-77
2023/05/25 09:34:22;;;;;;;11.35;4.18;;;21.50;56.40;;;;;;4919011;28;92016;-78
2023/05/25 09:36:48;;;;;;;13.02;4.50;;;21.70;57.60;;;;;;4936062;28;87873;-77
2023/05/25 09:39:14;;;;;;;11.52;4.90;;;22.00;55.80;;;;;;4918871;28;90019;-76
2023/05/25 09:41:40;;;;;;;15.07;5.32;;;22.00;54.20;;;;;;4935816;28;91499;-77
2023/05/25 09:44:06;;;;;;;9.63;4.30;;;21.70;54.30;;;;;;4918571;28;89950;-77
2023/05/25 09:46:35;;;;;;;10.30;5.07;;;21.60;56.00;;;;;;4936125;28;87742;-78
2023/05/25 09:49:07;;;;;;;12.95;4.78;;;21.60;55.50;;;;;;4935969;28;87673;-78
2023/05/25 09:51:33;;;;;;;11.07;4.25;;;21.90;56.50;;;;;;4934061;28;91917;-77
2023/05/25 09:54:03;;;;;;;8.75;3.90;;;22.20;55.50;;;;;;4937051;28;90374;-77
2023/05/25 09:56:31;;;;;;;11.20;4.68;;;22.50;56.50;;;;;;4918499;28;87801;-78
2023/05/25 09:58:57;;;;;;;9.45;3.92;;;22.90;56.70;;;;;;4936498;28;87625;-78
2023/05/25 10:01:23;;;;;;;9.90;4.30;;;22.90;54.30;;;;;;4919164;28;91631;-79
2023/05/25 10:03:55;;;;;;;10.68;4.03;;;22.40;53.00;;;;;;4933612;28;91480;-79
2023/05/25 10:06:21;;;;;;;9.25;4.15;;;22.30;54.60;;;;;;4919443;28;89209;-76
2023/05/25 10:08:48;;;;;;;12.60;4.07;;;22.30;55.00;;;;;;4936982;28;87383;-77
2023/05/25 10:11:15;;;;;;;12.68;3.80;;;22.20;53.90;;;;;;4936067;28;88660;-77
2023/05/25 10:13:44;;;;;;;9.05;3.83;;;22.20;56.50;;;;;;4935507;28;88416;-76
2023/05/25 10:16:16;;;;;;;10.20;3.38;;;22.20;53.20;;;;;;4935230;28;88848;-76
2023/05/25 10:18:59;;;;;;;9.23;4.00;;;22.40;55.70;;;;;;4903797;28;90534;-79
2023/05/25 10:21:27;;;;;;;8.48;3.70;;;22.70;54.50;;;;;;4909550;28;92609;-78
2023/05/25 10:23:56;;;;;;;12.07;3.97;;;22.80;54.80;;;;;;4922529;28;91608;-77
2023/05/25 10:26:26;;;;;;;11.13;3.47;;;22.70;53.40;;;;;;4939053;28;87707;-76
2023/05/25 10:29:00;;;;;;;8.52;3.25;;;22.50;54.80;;;;;;4938752;28;87479;-77
2023/05/25 10:31:28;;;;;;;10.75;3.20;;;22.80;52.90;;;;;;4939365;28;87803;-77
2023/05/25 10:33:55;;;;;;;8.68;2.90;;;23.00;53.90;;;;;;4938647;28;88341;-76
2023/05/25 10:36:22;;;;;;;7.80;3.05;;;23.10;52.30;;;;;;4922952;28;87945;-76
2023/05/25 10:38:50;;;;;;;6.95;2.45;;;23.10;53.10;;;;;;4921588;28;89613;-76
2023/05/25 10:41:19;;;;;;;10.48;4.10;;;23.00;54.30;;;;;;4938172;28;88899;-76
2023/05/25 10:43:45;;;;;;;8.30;2.97;;;23.30;53.40;;;;;;4920709;28;92344;-77
2023/05/25 10:46:13;;;;;;;9.15;2.97;;;24.00;53.80;;;;;;4919183;28;87849;-83
2023/05/25 10:48:45;;;;;;;9.27;3.15;;;23.90;50.80;;;;;;4937356;28;90373;-77
2023/05/25 10:51:10;;;;;;;5.47;2.50;;;24.00;51.70;;;;;;4938858;28;88191;-77
2023/05/25 10:53:36;;;;;;;7.30;2.45;;;24.00;51.00;;;;;;4939500;28;87718;-77
2023/05/25 10:56:06;;;;;;;7.28;2.97;;;24.20;51.10;;;;;;4921435;28;87784;-77
2023/05/25 10:58:32;;;;;;;7.22;3.72;;;24.60;51.10;;;;;;4939271;28;87586;-77
2023/05/25 11:01:10;;;;;;;6.03;2.85;;;24.50;48.20;;;;;;4921386;28;90316;-77
2023/05/25 11:03:56;;;;;;;9.57;2.67;;;24.40;50.40;;;;;;4920974;28;90340;-77
2023/05/25 11:06:36;;;;;;;9.13;3.88;;;24.20;50.80;;;;;;4917944;28;88711;-78
2023/05/25 11:09:03;;;;;;;15.25;4.28;;;23.90;50.50;;;;;;4936602;28;90181;-77
2023/05/25 11:11:46;;;;;;;5.22;2.67;;;23.60;50.90;;;;;;4920753;28;91512;-76
2023/05/25 11:14:21;;;;;;;;;;;23.20;50.60;;;;;;4938827;28;88226;-76
2023/05/25 11:17:20;;;;;;;7.30;2.83;;;23.40;52.10;;;;;;4939918;28;88668;-77
2023/05/25 11:20:01;;;;;;;8.65;3.00;;;23.80;51.40;;;;;;4895220;28;88069;-76
2023/05/25 11:22:36;;;;;;;8.35;2.45;;;24.50;51.50;;;;;;4937566;28;88957;-76
2023/05/25 11:25:21;;;;;;;7.50;3.00;;;24.60;49.70;;;;;;4936356;28;87449;-76
2023/05/25 11:27:46;;;;;;;7.40;2.65;;;24.60;50.10;;;;;;4920980;28;96415;-76
2023/05/25 11:30:16;;;;;;;6.78;3.15;;;24.80;48.70;;;;;;4938023;28;87514;-77
2023/05/25 11:32:49;;;;;;;7.18;2.83;;;24.60;48.80;;;;;;4920000;28;92157;-76
2023/05/25 11:35:15;;;;;;;8.30;3.10;;;24.10;50.20;;;;;;4936604;28;88469;-75
2023/05/25 11:37:48;;;;;;;7.25;3.40;;;23.90;50.50;;;;;;4937710;28;87234;-76
2023/05/25 11:40:13;;;;;;;8.77;3.55;;;23.80;49.60;;;;;;4938694;28;87776;-76
2023/05/25 11:42:40;;;;;;;10.23;2.80;;;24.00;49.70;;;;;;4937930;28;89219;-76
2023/05/25 11:45:10;;;;;;;5.47;2.42;;;23.80;50.60;;;;;;4938870;28;88416;-76
2023/05/25 11:47:35;;;;;;;8.52;2.10;;;24.00;50.00;;;;;;4937990;28;87651;-76
2023/05/25 11:50:01;;;;;;;6.95;2.85;;;24.40;50.40;;;;;;4921056;28;89317;-75
2023/05/25 11:52:27;;;;;;;6.13;1.83;;;24.40;48.10;;;;;;4935789;28;88864;-80
2023/05/25 11:54:53;;;;;;;7.88;2.38;;;24.10;51.30;;;;;;4920644;28;90061;-82
2023/05/25 11:57:23;;;;;;;5.93;1.95;;;24.50;50.60;;;;;;4920512;28;88603;-79
2023/05/25 11:59:54;;;;;;;7.90;1.90;;;25.30;48.10;;;;;;4920517;28;88734;-79
2023/05/25 12:02:21;;;;;;;4.82;1.70;;;25.90;48.50;;;;;;4936854;28;88601;-79
2023/05/25 12:04:58;;;;;;;5.78;1.77;;;26.50;47.70;;;;;;4936865;28;87624;-78
2023/05/25 12:07:25;;;;;;;3.35;1.42;;;26.80;47.00;;;;;;4936227;28;87935;-76
2023/05/25 12:09:51;;;;;;;5.45;1.77;;;27.00;45.00;;;;;;4936270;28;87875;-76
2023/05/25 12:12:18;;;;;;;5.30;1.55;;;27.60;46.90;;;;;;4936109;28;88737;-76
2023/05/25 12:14:47;;;;;;;4.63;1.75;;;27.90;45.50;;;;;;4938241;28;88516;-76
2023/05/25 12:17:13;;;;;;;6.68;2.10;;;27.40;44.00;;;;;;4936869;28;88057;-76
2023/05/25 12:19:39;;;;;;;5.68;1.70;;;27.10;44.90;;;;;;4937002;28;87966;-76
2023/05/25 12:22:05;;;;;;;3.63;2.08;;;27.10;45.80;;;;;;4935056;28;89299;-76
2023/05/25 12:24:30;;;;;;;4.45;1.50;;;27.20;46.10;;;;;;4936079;28;89163;-76
2023/05/25 12:26:57;;;;;;;8.13;1.90;;;27.10;46.70;;;;;;4937803;28;87913;-78
2023/05/25 12:29:26;;;;;;;7.50;1.92;;;27.00;47.10;;;;;;4935202;28;89027;-78
2023/05/25 12:31:52;;;;;;;6.03;2.40;;;26.80;46.80;;;;;;4935685;28;88642;-78
2023/05/25 12:34:19;;;;;;;8.07;2.22;;;26.90;44.80;;;;;;4937097;28;88271;-81
2023/05/25 12:36:52;;;;;;;5.20;1.90;;;27.10;46.70;;;;;;4917793;28;87657;-85
2023/05/25 12:39:30;;;;;;;7.60;2.58;;;26.90;44.50;;;;;;4918009;28;90255;-85
2023/05/25 12:42:01;;;;;;;7.75;2.95;;;26.40;45.10;;;;;;4920765;28;91744;-85
2023/05/25 12:44:36;;;;;;;5.72;2.45;;;26.20;46.50;;;;;;4918770;28;90069;-78
2023/05/25 12:47:18;;;;;;;2.53;1.65;;;25.90;46.30;;;;;;4935126;28;88609;-77
2023/05/25 12:49:46;;;;;;;5.70;2.08;;;25.90;47.70;;;;;;4918417;28;90627;-77
2023/05/25 12:52:34;;;;;;;6.30;2.13;;;26.30;47.40;;;;;;4915639;28;90173;-78
2023/05/25 12:55:28;;;;;;;5.65;2.60;;;27.10;46.50;;;;;;4917718;28;91487;-78
2023/05/25 12:57:56;;;;;;;7.05;3.00;;;27.50;45.60;;;;;;4928644;28;87638;-78
2023/05/25 13:00:24;;;;;;;8.38;2.80;;;27.40;46.20;;;;;;4935619;28;88561;-79
2023/05/25 13:02:52;;;;;;;6.97;2.80;;;26.80;45.00;;;;;;4937195;28;87946;-79
2023/05/25 13:05:23;;;;;;;4.22;1.95;;;26.80;46.50;;;;;;4924227;28;88297;-79
2023/05/25 13:07:49;;;;;;;7.15;2.10;;;27.30;46.20;;;;;;4934252;28;87598;-79
2023/05/25 13:10:19;;;;;;;6.63;2.92;;;27.00;45.10;;;;;;4935110;28;88354;-78